createdAt,value
2016-12-17T00:00:04.983Z,0
2016-12-17T00:05:04.578Z,0
2016-12-17T00:10:03.995Z,0
2016-12-17T00:15:04.674Z,0
2016-12-17T00:20:04.800Z,0
2016-12-17T00:25:04.277Z,0
2016-12-17T00:30:04.248Z,0
2016-12-17T00:35:04.154Z,0
2016-12-17T00:40:03.996Z,0
2016-12-17T00:45:04.551Z,0
2016-12-17T00:50:04.221Z,0
2016-12-17T00:55:04.177Z,0
2016-12-17T01:00:04.238Z,0
2016-12-17T01:05:04.143Z,0
2016-12-17T01:10:04.180Z,0
2016-12-17T01:15:04.863Z,0
2016-12-17T01:20:04.729Z,0
2016-12-17T01:25:04.101Z,0
2016-12-17T01:30:03.984Z,0
2016-12-17T01:35:04.956Z,0
2016-12-17T01:40:04.856Z,0
2016-12-17T01:45:04.931Z,0
2016-12-17T01:50:04.345Z,0
2016-12-17T01:55:04.469Z,0
2016-12-17T02:00:04.867Z,0
2016-12-17T02:05:04.520Z,0
2016-12-17T02:10:04.521Z,0
2016-12-17T02:15:04.420Z,0
2016-12-17T02:20:04.998Z,0
2016-12-17T02:25:04.771Z,0
2016-12-17T02:30:04.323Z,0
2016-12-17T02:35:04.949Z,0
2016-12-17T02:40:04.808Z,0
2016-12-17T02:45:04.826Z,0
2016-12-17T02:50:04.122Z,0
2016-12-17T02:55:04.696Z,0
2016-12-17T03:00:05.139Z,0
2016-12-17T03:05:04.476Z,0
2016-12-17T03:10:04.625Z,0
2016-12-17T03:15:04.389Z,0
2016-12-17T03:20:04.237Z,0
2016-12-17T03:25:04.809Z,0
2016-12-17T03:30:04.017Z,0
2016-12-17T03:35:04.119Z,0
2016-12-17T03:40:04.337Z,0
2016-12-17T03:45:04.156Z,0
2016-12-17T03:50:04.234Z,0
2016-12-17T03:55:04.847Z,0
2016-12-17T04:00:05.096Z,0
2016-12-17T04:05:04.919Z,0
2016-12-17T04:10:04.783Z,0
2016-12-17T04:15:04.488Z,0
2016-12-17T04:20:04.367Z,0
2016-12-17T04:25:04.413Z,0
2016-12-17T04:30:04.108Z,0
2016-12-17T04:35:03.915Z,0
2016-12-17T04:40:04.410Z,0
2016-12-17T04:45:04.910Z,0
2016-12-17T04:50:04.647Z,0
2016-12-17T04:55:04.109Z,0
2016-12-17T05:00:04.450Z,0
2016-12-17T05:05:04.807Z,0
2016-12-17T05:10:04.507Z,0
2016-12-17T05:15:04.308Z,0
2016-12-17T05:20:05.022Z,0
2016-12-17T05:25:04.909Z,0
2016-12-17T05:30:04.669Z,0
2016-12-17T05:35:04.354Z,0
2016-12-17T05:40:04.173Z,0
2016-12-17T05:45:04.980Z,0
2016-12-17T05:50:04.831Z,0
2016-12-17T05:55:04.320Z,0
2016-12-17T06:00:04.452Z,0
2016-12-17T06:05:04.144Z,0
2016-12-17T06:10:04.345Z,0
2016-12-17T06:15:04.441Z,0
2016-12-17T06:20:04.849Z,0
2016-12-17T06:25:04.641Z,0
2016-12-17T06:30:04.668Z,0
2016-12-17T06:35:04.302Z,0
2016-12-17T06:40:04.324Z,0
2016-12-17T06:45:04.370Z,0
2016-12-17T06:50:04.939Z,0
2016-12-17T06:55:04.151Z,1
2016-12-17T07:00:05.304Z,2
2016-12-17T07:05:04.929Z,4
2016-12-17T07:10:04.247Z,8
2016-12-17T07:15:04.477Z,14
2016-12-17T07:20:04.388Z,25
2016-12-17T07:25:04.977Z,35
2016-12-17T07:30:04.938Z,45
2016-12-17T07:35:04.187Z,57
2016-12-17T07:40:04.397Z,66
2016-12-17T07:45:04.145Z,101
2016-12-17T07:50:05.021Z,204
2016-12-17T07:55:04.559Z,307
2016-12-17T08:00:04.316Z,396
2016-12-17T08:05:04.358Z,457
2016-12-17T08:10:04.298Z,456
2016-12-17T08:15:04.199Z,466
2016-12-17T08:20:04.788Z,457
2016-12-17T08:25:04.614Z,531
2016-12-17T08:30:04.428Z,621
2016-12-17T08:35:04.669Z,733
2016-12-17T08:40:04.362Z,775
2016-12-17T08:45:04.118Z,903
2016-12-17T08:50:04.583Z,1000
2016-12-17T08:55:04.203Z,1000
2016-12-17T09:00:04.725Z,1000
2016-12-17T09:05:04.507Z,1000
2016-12-17T09:10:04.496Z,1000
2016-12-17T09:15:04.236Z,1000
2016-12-17T09:20:04.234Z,1000
2016-12-17T09:25:03.992Z,1000
2016-12-17T09:30:04.264Z,1000
2016-12-17T09:35:04.209Z,1000
2016-12-17T09:40:04.846Z,1000
2016-12-17T09:45:04.790Z,2000
2016-12-17T09:50:04.812Z,2000
2016-12-17T09:55:04.324Z,1000
2016-12-17T10:00:03.972Z,1000
2016-12-17T10:05:04.759Z,2000
2016-12-17T10:10:05.057Z,2000
2016-12-17T10:15:04.539Z,2000
2016-12-17T10:20:04.164Z,2000
2016-12-17T10:25:04.878Z,2000
2016-12-17T10:30:04.697Z,2000
2016-12-17T10:35:04.856Z,2000
2016-12-17T10:40:04.612Z,2000
2016-12-17T10:45:04.885Z,3000
2016-12-17T10:50:04.590Z,3000
2016-12-17T10:55:04.142Z,3000
2016-12-17T11:00:04.681Z,3000
2016-12-17T11:05:04.175Z,3000
2016-12-17T11:10:04.835Z,3000
2016-12-17T11:15:04.794Z,3000
2016-12-17T11:20:04.134Z,3000
2016-12-17T11:25:04.849Z,3000
2016-12-17T11:30:04.169Z,3000
2016-12-17T11:35:04.203Z,3000
2016-12-17T11:40:04.687Z,3000
2016-12-17T11:45:04.970Z,3000
2016-12-17T11:50:04.274Z,3000
2016-12-17T11:55:04.282Z,3000
2016-12-17T12:00:04.369Z,3000
2016-12-17T12:05:04.218Z,4000
2016-12-17T12:10:04.548Z,4000
2016-12-17T12:15:04.477Z,4000
2016-12-17T12:20:03.882Z,3000
2016-12-17T12:25:04.861Z,4000
2016-12-17T12:30:04.930Z,4000
2016-12-17T12:35:04.323Z,3000
2016-12-17T12:40:05.034Z,3000
2016-12-17T12:45:04.462Z,3000
2016-12-17T12:50:04.716Z,3000
2016-12-17T12:55:04.651Z,3000
2016-12-17T13:00:04.931Z,3000
2016-12-17T13:05:04.942Z,3000
2016-12-17T13:10:04.534Z,3000
2016-12-17T13:15:04.802Z,3000
2016-12-17T13:20:04.118Z,2000
2016-12-17T13:25:04.269Z,2000
2016-12-17T13:30:04.994Z,2000
2016-12-17T13:35:04.289Z,2000
2016-12-17T13:40:04.195Z,2000
2016-12-17T13:45:04.414Z,2000
2016-12-17T13:50:04.764Z,1000
2016-12-17T13:55:04.201Z,1000
2016-12-17T14:00:04.377Z,1000
2016-12-17T14:05:04.950Z,1000
2016-12-17T14:10:04.228Z,1000
2016-12-17T14:15:04.890Z,992
2016-12-17T14:20:04.009Z,990
2016-12-17T14:25:04.955Z,1000
2016-12-17T14:30:04.113Z,735
2016-12-17T14:35:04.832Z,636
2016-12-17T14:40:04.584Z,605
2016-12-17T14:45:04.789Z,508
2016-12-17T14:50:03.939Z,453
2016-12-17T14:55:04.789Z,351
2016-12-17T15:00:04.033Z,309
2016-12-17T15:05:04.754Z,266
2016-12-17T15:10:04.312Z,122
2016-12-17T15:15:04.669Z,94
2016-12-17T15:20:04.881Z,61
2016-12-17T15:25:04.283Z,49
2016-12-17T15:30:03.948Z,46
2016-12-17T15:35:04.737Z,39
2016-12-17T15:40:04.767Z,26
2016-12-17T15:45:04.360Z,16
2016-12-17T15:50:04.787Z,6
2016-12-17T15:55:04.416Z,3
2016-12-17T16:00:04.160Z,2
2016-12-17T16:05:04.324Z,1
2016-12-17T16:10:03.989Z,0
2016-12-17T16:15:04.180Z,0
2016-12-17T16:20:03.970Z,0
2016-12-17T16:25:04.906Z,0
2016-12-17T16:30:04.267Z,0
2016-12-17T16:35:03.932Z,0
2016-12-17T16:40:04.921Z,0
2016-12-17T16:45:04.296Z,0
2016-12-17T16:50:05.036Z,0
2016-12-17T16:55:04.838Z,0
2016-12-17T17:00:05.105Z,0
2016-12-17T17:05:04.844Z,0
2016-12-17T17:10:04.940Z,0
2016-12-17T17:15:04.732Z,0
2016-12-17T17:20:04.982Z,0
2016-12-17T17:25:04.683Z,0
2016-12-17T17:30:03.990Z,0
2016-12-17T17:35:04.224Z,0
2016-12-17T17:40:04.822Z,0
2016-12-17T17:45:04.149Z,0
2016-12-17T17:50:04.746Z,0
2016-12-17T17:55:04.290Z,0
2016-12-17T18:00:04.989Z,0
2016-12-17T18:05:04.777Z,0
2016-12-17T18:10:04.689Z,0
2016-12-17T18:15:04.595Z,0
2016-12-17T18:20:04.356Z,0
2016-12-17T18:25:04.777Z,0
2016-12-17T18:30:04.210Z,0
2016-12-17T18:35:04.942Z,0
2016-12-17T18:40:04.959Z,0
2016-12-17T18:45:04.389Z,0
2016-12-17T18:50:04.213Z,0
2016-12-17T18:55:04.738Z,0
2016-12-17T19:00:04.538Z,0
2016-12-17T19:05:04.187Z,0
2016-12-17T19:10:03.926Z,0
2016-12-17T19:15:04.324Z,0
2016-12-17T19:20:04.073Z,0
2016-12-17T19:25:04.463Z,0
2016-12-17T19:30:04.985Z,0
2016-12-17T19:35:04.381Z,0
2016-12-17T19:40:04.766Z,0
2016-12-17T19:45:04.926Z,0
2016-12-17T19:50:04.320Z,0
2016-12-17T19:55:04.551Z,0
2016-12-17T20:00:04.936Z,0
2016-12-17T20:05:04.340Z,0
2016-12-17T20:10:04.585Z,0
2016-12-17T20:15:04.299Z,0
2016-12-17T20:20:04.632Z,0
2016-12-17T20:25:04.798Z,0
2016-12-17T20:30:04.342Z,0
2016-12-17T20:35:04.160Z,0
2016-12-17T20:40:04.594Z,0
2016-12-17T20:45:04.867Z,0
2016-12-17T20:50:04.463Z,0
2016-12-17T20:55:05.103Z,0
2016-12-17T21:00:04.522Z,0
2016-12-17T21:05:04.760Z,0
2016-12-17T21:10:05.007Z,0
2016-12-17T21:15:04.249Z,0
2016-12-17T21:20:04.871Z,0
2016-12-17T21:25:04.059Z,0
2016-12-17T21:30:04.328Z,0
2016-12-17T21:35:04.309Z,0
2016-12-17T21:40:04.227Z,0
2016-12-17T21:45:05.109Z,0
2016-12-17T21:50:04.156Z,0
2016-12-17T21:55:04.208Z,0
2016-12-17T22:00:04.877Z,0
2016-12-17T22:05:04.161Z,0
2016-12-17T22:10:04.882Z,0
2016-12-17T22:15:04.885Z,0
2016-12-17T22:20:04.286Z,0
2016-12-17T22:25:04.490Z,0
2016-12-17T22:30:04.530Z,0
2016-12-17T22:35:04.847Z,0
2016-12-17T22:40:04.049Z,0
2016-12-17T22:45:04.421Z,0
2016-12-17T22:50:04.141Z,0
2016-12-17T22:55:04.558Z,0
2016-12-17T23:00:04.344Z,0
2016-12-17T23:05:04.625Z,0
2016-12-17T23:10:04.510Z,0
2016-12-17T23:15:04.869Z,0
2016-12-17T23:20:04.311Z,0
2016-12-17T23:25:04.648Z,0
2016-12-17T23:30:04.528Z,0
2016-12-17T23:35:04.886Z,0
2016-12-17T23:40:04.371Z,0
2016-12-17T23:45:04.172Z,0
2016-12-17T23:50:04.752Z,0
2016-12-17T23:55:04.694Z,0
